Terminal Aerodrome Forecast
Issued by NWS Blacksburg, VA

Current Version | Previous Version | Text Only | Print | Product List | Glossary Off
Versions: 1 2 3 4 5 6 7 8 9 10 11 12 13 14 15 16 17 18

000
FTUS41 KRNK 262351
TAFBLF
TAF
KBLF 262351Z 2700/2724 VRB04KT P6SM VCSH SCT015 OVC090
     FM270300 27004KT 3SM -SHRA BR BKN004 OVC012
     FM270600 28006KT 4SM BR OVC004
      TEMPO 2709/2713 3/4SM BR OVC003
     FM271400 29007KT P6SM OVC013
     FM271800 30008KT P6SM BKN023=

USA.gov is the U.S. government's official web portal to all federal, state and local government web resources and services.